createdAt,value
2019-05-02T00:00:20.778Z,7.30
2019-05-02T00:02:49.217Z,7.20
2019-05-02T00:05:17.989Z,7.10
2019-05-02T00:07:46.428Z,7.00
2019-05-02T00:10:19.881Z,6.90
2019-05-02T00:12:49.041Z,6.80
2019-05-02T00:15:18.436Z,6.70
2019-05-02T00:17:46.860Z,6.70
2019-05-02T00:20:21.302Z,6.60
2019-05-02T00:22:48.022Z,6.60
2019-05-02T00:25:17.720Z,6.50
2019-05-02T00:27:46.142Z,6.40
2019-05-02T00:30:15.260Z,6.30
2019-05-02T00:32:43.676Z,6.20
2019-05-02T00:35:12.091Z,6.20
2019-05-02T00:37:40.560Z,6.30
2019-05-02T00:40:09.403Z,6.30
2019-05-02T00:42:37.820Z,6.40
2019-05-02T00:45:06.365Z,6.50
2019-05-02T00:47:49.795Z,6.60
2019-05-02T00:50:18.799Z,6.60
2019-05-02T00:52:47.534Z,6.50
2019-05-02T00:55:15.944Z,6.30
2019-05-02T00:57:44.359Z,6.30
2019-05-02T01:00:18.291Z,6.30
2019-05-02T01:02:45.497Z,6.30
2019-05-02T01:05:14.040Z,6.30
2019-05-02T01:07:42.465Z,6.50
2019-05-02T01:10:11.284Z,6.60
2019-05-02T01:12:43.892Z,6.60
2019-05-02T01:15:10.660Z,6.70
2019-05-02T01:17:39.137Z,6.80
2019-05-02T01:20:07.884Z,6.80
2019-05-02T01:22:36.304Z,6.80
2019-05-02T01:25:15.066Z,6.80
2019-05-02T01:27:55.547Z,6.80
2019-05-02T01:30:42.448Z,6.80
2019-05-02T01:33:19.531Z,6.80
2019-05-02T01:36:06.190Z,6.40
2019-05-02T01:38:33.797Z,6.20
2019-05-02T01:41:02.530Z,6.00
2019-05-02T01:43:31.479Z,6.00
2019-05-02T01:46:00.491Z,5.90
2019-05-02T01:48:28.958Z,5.90
2019-05-02T01:50:57.509Z,5.80
2019-05-02T01:53:29.378Z,5.90
2019-05-02T01:55:57.830Z,5.80
2019-05-02T01:58:26.216Z,5.70
2019-05-02T02:00:54.624Z,5.70
2019-05-02T02:03:23.052Z,5.60
2019-05-02T02:05:51.725Z,5.80
2019-05-02T02:08:20.146Z,5.80
2019-05-02T02:10:50.851Z,6.00
2019-05-02T02:13:18.760Z,5.70
2019-05-02T02:15:47.168Z,5.60
2019-05-02T02:18:16.662Z,5.60
2019-05-02T02:20:52.650Z,5.60
2019-05-02T02:23:35.129Z,5.60
2019-05-02T02:26:11.889Z,5.60
2019-05-02T02:28:38.358Z,5.60
2019-05-02T02:31:07.859Z,5.70
2019-05-02T02:33:41.090Z,5.70
2019-05-02T02:36:06.729Z,5.70
2019-05-02T02:38:35.459Z,5.70
2019-05-02T02:41:06.467Z,5.70
2019-05-02T02:43:35.078Z,5.80
2019-05-02T02:46:17.798Z,5.80
2019-05-02T02:48:46.207Z,5.80
2019-05-02T02:51:22.725Z,5.90
2019-05-02T02:53:44.756Z,5.80
2019-05-02T02:56:13.482Z,5.80
2019-05-02T02:58:47.542Z,5.90
2019-05-02T03:01:12.026Z,5.80
2019-05-02T03:03:40.496Z,5.90
2019-05-02T03:06:08.926Z,5.90
2019-05-02T03:08:45.224Z,6.00
2019-05-02T03:11:08.056Z,6.00
2019-05-02T03:13:51.205Z,6.10
2019-05-02T03:19:02.636Z,5.80
2019-05-02T03:21:31.802Z,5.70
2019-05-02T03:24:03.561Z,5.70
2019-05-02T03:26:30.979Z,5.80
2019-05-02T03:29:00.762Z,5.80
2019-05-02T03:31:31.087Z,5.90
2019-05-02T03:34:01.000Z,5.90
2019-05-02T03:36:36.609Z,5.90
2019-05-02T03:39:06.960Z,5.90
2019-05-02T03:41:30.914Z,5.80
2019-05-02T03:44:10.478Z,5.70
2019-05-02T03:46:29.726Z,5.50
2019-05-02T03:49:05.975Z,5.30
2019-05-02T03:51:28.579Z,5.10
2019-05-02T03:54:05.740Z,5.10
2019-05-02T03:56:27.351Z,5.10
2019-05-02T03:58:58.317Z,5.10
2019-05-02T04:01:26.652Z,5.20
2019-05-02T04:03:55.073Z,5.20
2019-05-02T04:06:23.964Z,5.40
2019-05-02T04:08:58.722Z,5.40
2019-05-02T04:11:24.876Z,5.50
2019-05-02T04:13:55.020Z,5.50
2019-05-02T04:16:23.773Z,5.40
2019-05-02T04:18:55.610Z,5.60
2019-05-02T04:21:25.894Z,5.60
2019-05-02T04:23:53.395Z,5.60
2019-05-02T04:26:23.261Z,5.60
2019-05-02T04:28:52.193Z,5.70
2019-05-02T04:31:24.993Z,5.70
2019-05-02T04:34:15.121Z,5.80
2019-05-02T04:36:46.031Z,5.80
2019-05-02T04:39:17.743Z,5.90
2019-05-02T04:41:42.411Z,5.90
2019-05-02T04:44:11.160Z,6.00
2019-05-02T04:46:39.582Z,6.00
2019-05-02T04:49:09.169Z,6.10
2019-05-02T04:51:38.344Z,6.10
2019-05-02T04:54:09.251Z,6.30
2019-05-02T04:56:39.702Z,6.50
2019-05-02T04:59:16.533Z,6.60
2019-05-02T05:01:43.274Z,6.70
2019-05-02T05:04:08.276Z,6.70
2019-05-02T05:06:40.533Z,6.80
2019-05-02T05:09:12.709Z,6.80
2019-05-02T05:12:00.894Z,6.90
2019-05-02T05:16:58.028Z,7.10
2019-05-02T05:24:38.490Z,7.20
2019-05-02T05:27:04.086Z,7.30
2019-05-02T05:29:32.505Z,7.30
2019-05-02T05:32:09.309Z,7.50
2019-05-02T05:41:58.823Z,7.70
2019-05-02T05:49:28.291Z,7.80
2019-05-02T05:52:00.665Z,7.90
2019-05-02T05:54:28.289Z,8.10
2019-05-02T05:56:57.414Z,8.10
2019-05-02T05:59:28.020Z,8.20
2019-05-02T06:01:57.959Z,8.30
2019-05-02T06:06:59.516Z,8.40
2019-05-02T06:11:56.687Z,8.60
2019-05-02T06:16:54.999Z,8.70
2019-05-02T06:29:18.664Z,9.10
2019-05-02T06:31:49.680Z,9.20
2019-05-02T06:34:18.101Z,9.20
2019-05-02T06:46:39.088Z,9.50
2019-05-02T07:01:29.974Z,10.00
2019-05-02T07:03:58.408Z,10.10
2019-05-02T07:06:26.917Z,10.20
2019-05-02T07:16:37.214Z,10.60
2019-05-02T08:06:19.025Z,12.80
2019-05-02T08:08:47.445Z,12.90
2019-05-02T08:13:43.978Z,13.20
2019-05-02T08:18:40.501Z,13.50
2019-05-02T08:31:06.441Z,14.60
2019-05-02T08:36:04.441Z,15.00
2019-05-02T08:38:32.872Z,15.20
2019-05-02T08:53:22.300Z,15.70
2019-05-02T08:55:50.933Z,15.70
2019-05-02T08:58:19.350Z,15.70
2019-05-02T09:00:47.799Z,15.70
2019-05-02T09:05:46.065Z,15.90
2019-05-02T09:13:33.015Z,16.20
2019-05-02T09:16:05.285Z,16.30
2019-05-02T09:18:38.592Z,16.30
2019-05-02T09:21:02.123Z,16.50
2019-05-02T09:26:02.441Z,16.80
2019-05-02T09:28:32.087Z,16.90
2019-05-02T09:31:04.989Z,17.10
2019-05-02T09:33:32.241Z,17.10
2019-05-02T09:43:37.491Z,16.60
2019-05-02T09:46:02.784Z,16.60
2019-05-02T09:48:31.889Z,16.70
2019-05-02T09:51:04.634Z,16.80
2019-05-02T09:53:32.376Z,16.90
2019-05-02T09:56:02.186Z,17.10
2019-05-02T09:58:32.017Z,17.30
2019-05-02T10:01:02.302Z,17.30
2019-05-02T10:03:31.866Z,17.30
2019-05-02T10:06:00.512Z,17.30
2019-05-02T10:08:28.942Z,17.30
2019-05-02T10:10:58.048Z,17.40
2019-05-02T10:13:26.463Z,17.40
2019-05-02T10:15:55.080Z,17.40
2019-05-02T10:18:28.652Z,17.50
2019-05-02T10:20:53.950Z,17.20
2019-05-02T10:23:23.419Z,17.10
2019-05-02T10:25:52.240Z,17.20
2019-05-02T10:28:22.654Z,17.10
2019-05-02T10:30:52.513Z,17.10
2019-05-02T10:33:22.562Z,17.20
2019-05-02T10:35:52.502Z,17.20
2019-05-02T10:38:22.712Z,17.10
2019-05-02T10:40:54.595Z,17.10
2019-05-02T10:43:22.226Z,17.30
2019-05-02T10:46:07.632Z,17.20
2019-05-02T10:48:37.994Z,17.20
2019-05-02T10:51:25.944Z,17.50
2019-05-02T10:53:56.423Z,17.80
2019-05-02T10:56:24.230Z,17.90
2019-05-02T10:58:52.654Z,17.90
2019-05-02T11:01:22.728Z,18.20
2019-05-02T11:03:52.984Z,18.20
2019-05-02T11:06:22.238Z,18.40
2019-05-02T11:08:52.374Z,18.60
2019-05-02T11:11:21.889Z,18.90
2019-05-02T11:14:00.722Z,19.00
2019-05-02T11:16:32.031Z,19.20
2019-05-02T11:21:38.400Z,19.10
2019-05-02T11:24:26.152Z,19.10
2019-05-02T11:26:54.582Z,19.20
2019-05-02T11:29:23.113Z,19.40
2019-05-02T11:31:52.163Z,19.30
2019-05-02T11:34:41.946Z,19.20
2019-05-02T11:37:12.168Z,19.20
2019-05-02T11:39:46.278Z,19.20
2019-05-02T11:42:12.487Z,19.30
2019-05-02T11:44:41.832Z,19.40
2019-05-02T11:47:12.479Z,19.40
2019-05-02T11:49:42.548Z,19.40
2019-05-02T11:52:11.856Z,19.30
2019-05-02T11:54:44.698Z,18.90
2019-05-02T11:57:11.681Z,18.90
2019-05-02T11:59:42.411Z,18.90
2019-05-02T12:02:18.764Z,19.10
2019-05-02T12:04:47.352Z,19.30
2019-05-02T12:07:15.509Z,19.30
2019-05-02T12:09:55.188Z,19.30
2019-05-02T12:12:15.733Z,19.20
2019-05-02T12:14:44.448Z,18.70
2019-05-02T12:17:12.929Z,18.50
2019-05-02T12:19:42.576Z,18.60
2019-05-02T12:22:12.762Z,18.90
2019-05-02T12:25:02.863Z,19.10
2019-05-02T12:27:31.905Z,19.30
2019-05-02T12:30:03.104Z,19.40
2019-05-02T12:32:30.617Z,19.60
2019-05-02T12:34:59.040Z,19.70
2019-05-02T12:37:27.453Z,19.80
2019-05-02T12:39:55.981Z,19.70
2019-05-02T12:42:24.883Z,19.50
2019-05-02T12:44:53.425Z,19.30
2019-05-02T12:47:22.545Z,19.40
2019-05-02T12:49:52.051Z,19.50
2019-05-02T12:52:22.430Z,19.30
2019-05-02T12:54:52.546Z,19.00
2019-05-02T12:57:22.022Z,18.80
2019-05-02T12:59:52.418Z,18.90
2019-05-02T13:02:22.482Z,18.70
2019-05-02T13:04:52.725Z,18.90
2019-05-02T13:07:23.224Z,19.10
2019-05-02T13:09:52.780Z,19.30
2019-05-02T13:12:23.565Z,19.40
2019-05-02T13:14:52.937Z,19.60
2019-05-02T13:17:22.655Z,19.60
2019-05-02T13:19:57.140Z,19.40
2019-05-02T13:22:29.102Z,19.50
2019-05-02T13:24:59.435Z,19.50
2019-05-02T13:27:32.206Z,18.90
2019-05-02T13:29:59.584Z,18.80
2019-05-02T13:32:31.969Z,18.80
2019-05-02T13:35:12.713Z,18.90
2019-05-02T13:37:42.405Z,19.10
2019-05-02T13:40:17.196Z,19.20
2019-05-02T13:42:45.847Z,19.20
2019-05-02T13:45:32.443Z,19.20
2019-05-02T13:48:02.674Z,19.20
2019-05-02T13:50:31.678Z,19.30
2019-05-02T13:53:02.463Z,19.40
2019-05-02T13:55:32.452Z,19.50
2019-05-02T13:58:02.291Z,19.50
2019-05-02T14:00:38.437Z,19.70
2019-05-02T14:03:07.228Z,19.70
2019-05-02T14:05:37.310Z,19.80
2019-05-02T14:08:22.558Z,19.70
2019-05-02T14:10:52.821Z,19.40
2019-05-02T14:13:22.126Z,19.10
2019-05-02T14:15:52.642Z,19.10
2019-05-02T14:18:23.306Z,18.90
2019-05-02T14:20:52.701Z,18.90
2019-05-02T14:23:22.171Z,18.70
2019-05-02T14:25:52.081Z,18.70
2019-05-02T14:28:22.414Z,18.70
2019-05-02T14:30:52.549Z,18.80
2019-05-02T14:33:23.246Z,18.80
2019-05-02T14:35:52.563Z,18.80
2019-05-02T14:38:22.101Z,18.80
2019-05-02T14:40:55.026Z,18.80
2019-05-02T14:43:46.118Z,18.60
2019-05-02T14:46:12.615Z,18.50
2019-05-02T14:48:45.178Z,18.50
2019-05-02T14:51:16.555Z,18.50
2019-05-02T14:53:43.404Z,18.00
2019-05-02T14:56:22.764Z,17.20
2019-05-02T14:58:52.812Z,16.40
2019-05-02T15:01:25.830Z,15.40
2019-05-02T15:03:52.963Z,14.80
2019-05-02T15:06:23.833Z,14.40
2019-05-02T15:08:52.582Z,14.00
2019-05-02T15:11:30.433Z,13.60
2019-05-02T15:13:52.586Z,13.40
2019-05-02T15:16:44.954Z,13.30
2019-05-02T15:19:12.604Z,13.00
2019-05-02T15:21:47.073Z,13.00
2019-05-02T15:24:33.447Z,12.90
2019-05-02T15:27:03.904Z,12.80
2019-05-02T15:29:29.486Z,12.80
2019-05-02T15:32:08.905Z,12.60
2019-05-02T15:34:43.285Z,12.70
2019-05-02T15:44:35.900Z,12.70
2019-05-02T15:54:34.993Z,12.30
2019-05-02T15:57:05.813Z,12.40
2019-05-02T15:59:43.213Z,12.50
2019-05-02T16:02:17.519Z,12.60
2019-05-02T16:04:46.024Z,12.60
2019-05-02T16:07:14.440Z,12.60
2019-05-02T16:09:42.869Z,12.60
2019-05-02T16:12:12.228Z,12.60
2019-05-02T16:14:42.525Z,12.60
2019-05-02T16:17:12.457Z,12.60
2019-05-02T16:19:43.159Z,12.60
2019-05-02T16:22:19.077Z,12.70
2019-05-02T16:24:51.011Z,12.60
2019-05-02T16:27:25.721Z,12.60
2019-05-02T16:29:53.122Z,12.60
2019-05-02T16:32:35.852Z,12.60
2019-05-02T16:35:12.297Z,12.60
2019-05-02T16:37:33.995Z,12.60
2019-05-02T16:40:02.935Z,12.60
2019-05-02T16:42:51.807Z,12.60
2019-05-02T16:45:22.227Z,12.60
2019-05-02T16:47:58.710Z,12.60
2019-05-02T16:50:42.670Z,12.60
2019-05-02T16:53:11.849Z,12.60
2019-05-02T16:55:43.448Z,12.60
2019-05-02T16:58:11.857Z,12.60
2019-05-02T17:00:44.003Z,12.60
2019-05-02T17:03:12.535Z,12.50
2019-05-02T17:06:01.696Z,12.40
2019-05-02T17:08:37.428Z,12.30
2019-05-02T17:11:07.498Z,12.20
2019-05-02T17:13:35.945Z,12.10
2019-05-02T17:16:12.028Z,12.10
2019-05-02T17:18:48.297Z,12.10
2019-05-02T17:23:46.810Z,12.00
2019-05-02T17:33:46.284Z,11.80
2019-05-02T17:36:13.173Z,11.80
2019-05-02T17:38:41.934Z,11.80
2019-05-02T17:46:12.681Z,11.70
2019-05-02T17:53:48.004Z,11.60
2019-05-02T17:56:13.005Z,11.60
2019-05-02T17:58:47.325Z,11.60
2019-05-02T18:01:16.105Z,11.50
2019-05-02T18:03:44.522Z,11.50
2019-05-02T18:08:46.271Z,11.50
2019-05-02T18:16:13.252Z,11.40
2019-05-02T18:21:12.680Z,11.30
2019-05-02T18:23:42.671Z,11.30
2019-05-02T18:26:11.448Z,11.30
2019-05-02T18:38:36.120Z,11.20
2019-05-02T18:41:06.191Z,11.20
2019-05-02T18:46:07.547Z,11.20
2019-05-02T18:51:04.868Z,11.20
2019-05-02T18:56:03.450Z,11.10
2019-05-02T18:58:32.005Z,11.10
2019-05-02T19:11:07.578Z,11.00
2019-05-02T19:23:22.734Z,10.90
2019-05-02T19:30:57.255Z,10.90
2019-05-02T19:33:26.004Z,10.90
2019-05-02T19:35:54.408Z,10.90
2019-05-02T19:38:26.307Z,10.80
2019-05-02T19:40:53.049Z,10.80
2019-05-02T19:48:22.730Z,10.80
2019-05-02T19:53:22.639Z,10.70
2019-05-02T19:58:20.667Z,10.60
2019-05-02T20:00:49.471Z,10.50
2019-05-02T20:08:21.468Z,10.40
2019-05-02T20:10:49.261Z,10.30
2019-05-02T20:18:20.872Z,10.30
2019-05-02T20:21:06.376Z,10.30
2019-05-02T20:23:35.684Z,10.30
2019-05-02T20:41:02.763Z,10.30
2019-05-02T20:48:32.202Z,10.20
2019-05-02T20:56:01.900Z,10.10
2019-05-02T21:06:05.040Z,10.10
2019-05-02T21:13:34.670Z,10.20
2019-05-02T21:21:01.074Z,10.00
2019-05-02T21:23:41.982Z,10.00
2019-05-02T21:38:28.922Z,10.20
2019-05-02T21:43:25.774Z,10.20
2019-05-02T21:45:54.269Z,10.10
2019-05-02T21:48:24.185Z,10.10
2019-05-02T21:54:14.874Z,10.20
2019-05-02T21:56:45.105Z,10.10
2019-05-02T21:59:14.562Z,9.90
2019-05-02T22:01:51.927Z,9.90
2019-05-02T22:04:22.542Z,9.90
2019-05-02T22:06:52.146Z,9.80
2019-05-02T22:09:41.668Z,9.80
2019-05-02T22:12:11.950Z,9.90
2019-05-02T22:14:42.156Z,9.90
2019-05-02T22:17:12.598Z,9.90
2019-05-02T22:19:41.671Z,9.90
2019-05-02T22:22:12.239Z,9.90
2019-05-02T22:24:42.144Z,9.90
2019-05-02T22:27:12.384Z,9.90
2019-05-02T22:29:43.052Z,9.90
2019-05-02T22:32:12.378Z,9.90
2019-05-02T22:34:42.619Z,9.80
2019-05-02T22:37:13.214Z,9.80
2019-05-02T22:39:43.282Z,9.80
2019-05-02T22:42:12.739Z,9.80
2019-05-02T22:44:41.785Z,9.80
2019-05-02T22:47:11.817Z,9.80
2019-05-02T22:49:42.385Z,9.70
2019-05-02T22:52:12.184Z,9.70
2019-05-02T22:54:41.671Z,9.70
2019-05-02T22:57:31.700Z,9.70
2019-05-02T23:00:01.779Z,9.60
2019-05-02T23:02:49.225Z,9.60
2019-05-02T23:05:17.751Z,9.60
2019-05-02T23:07:47.089Z,9.30
2019-05-02T23:10:15.649Z,9.60
2019-05-02T23:12:44.073Z,9.60
2019-05-02T23:15:13.173Z,9.60
2019-05-02T23:17:53.965Z,9.60
2019-05-02T23:20:24.424Z,9.60
2019-05-02T23:22:52.917Z,9.50
2019-05-02T23:25:39.523Z,9.50
2019-05-02T23:28:12.301Z,9.30
2019-05-02T23:30:42.341Z,9.40
2019-05-02T23:33:12.851Z,9.40
2019-05-02T23:35:42.997Z,9.40
2019-05-02T23:38:12.594Z,9.40
2019-05-02T23:40:42.099Z,9.40
2019-05-02T23:43:12.396Z,9.40
2019-05-02T23:45:42.271Z,9.40
2019-05-02T23:48:12.528Z,9.30
2019-05-02T23:50:41.045Z,9.50
2019-05-02T23:53:09.496Z,9.60
2019-05-02T23:55:37.949Z,9.50
2019-05-02T23:58:06.385Z,9.60
